»·PEaware :: N5345Q KBUR-KSBD

N5345Q :: KBUR-KSBD

FLIGHT INFORMATION

Flight Status: Arrived
Operator: Privately registered:
United States
More flights under this callsign
Pilot: Anonymous 30998 (30998)
Aircraft: CESSNA 150 COMMUTER AEROBAT
(C150)
More flights by this aircraft type
Origin: KBUR Bob Hope-Burbank
United States
Destination: KSBD San Bernardino Intl
United States
More flights between these airports :: More routes between these airports
Route: +KSNA-FERMY-CANOG-KBUR
File this flight plan on PilotEdge
Remarks:
Altitude:
(Current/Filed)
4,500ft
Speed:
(Current/Filed)
90kts
Departed: 09-Oct-20 05:40 PM
Arrived: 09-Oct-20 06:21 PM
Distance/Time
Traveled:
57nm/0:41
Distance/Time
To Go:
Arrived

Flight Plot

Page will automatically refresh every two minutes.

Flight plan parsing failed; only flown route is shown


Map Options




Map Legend


Flown Route
Filed Route
Departure Airport
Arrival Airport
Navaid (VOR, NDB)
Fix

Horizontal Profiles

Position Reports

Time Latitude Longitude Heading Altitude Ground
Speed
09-Oct-20 17:28 34.201813 -118.359665 167 728ft 0kts
09-Oct-20 17:29 34.201813 -118.359665 167 728ft 0kts
09-Oct-20 17:30 34.201813 -118.359665 167 728ft 0kts
09-Oct-20 17:31 34.201813 -118.359665 167 728ft 0kts
09-Oct-20 17:32 34.202154 -118.358820 354 727ft 8kts
09-Oct-20 17:33 34.203892 -118.359309 347 734ft 7kts
09-Oct-20 17:34 34.206793 -118.360093 346 745ft 11kts
09-Oct-20 17:35 34.209925 -118.360945 345 761ft 9kts
09-Oct-20 17:36 34.211885 -118.361389 25 767ft 0kts
09-Oct-20 17:37 34.211884 -118.361389 25 767ft 0kts
09-Oct-20 17:38 34.211942 -118.360373 165 765ft 7kts
09-Oct-20 17:39 34.206767 -118.358923 166 743ft 69kts
09-Oct-20 17:40 34.187537 -118.353051 165 1515ft 63kts
09-Oct-20 17:41 34.171466 -118.343865 152 2277ft 66kts
09-Oct-20 17:42 34.155649 -118.332627 148 3003ft 67kts
09-Oct-20 17:43 34.138782 -118.323323 140 3672ft 71kts
09-Oct-20 17:44 34.135080 -118.298071 100 4297ft 79kts
09-Oct-20 17:46 34.133495 -118.268232 99 4465ft 96kts
09-Oct-20 17:47 34.134402 -118.235163 90 4460ft 98kts
09-Oct-20 17:48 34.133263 -118.202301 98 4458ft 98kts
09-Oct-20 17:49 34.130920 -118.169431 104 4457ft 97kts
09-Oct-20 17:50 34.128635 -118.136531 90 4452ft 100kts
09-Oct-20 17:51 34.129642 -118.103170 99 4443ft 99kts
09-Oct-20 17:52 34.130370 -118.069510 92 4437ft 100kts
09-Oct-20 17:53 34.130939 -118.035836 91 4432ft 100kts
09-Oct-20 17:54 34.131456 -118.002213 89 4466ft 97kts
09-Oct-20 17:55 34.132335 -117.968839 87 4487ft 99kts
09-Oct-20 17:56 34.134948 -117.935475 86 4508ft 100kts
09-Oct-20 17:57 34.136611 -117.901976 88 4518ft 100kts
09-Oct-20 17:58 34.136893 -117.868472 86 4518ft 99kts
09-Oct-20 17:59 34.135625 -117.835087 92 4518ft 99kts
09-Oct-20 18:00 34.135246 -117.801778 87 4516ft 99kts
09-Oct-20 18:01 34.134717 -117.768253 92 4512ft 100kts
09-Oct-20 18:02 34.134642 -117.734744 86 4508ft 100kts
09-Oct-20 18:03 34.135336 -117.701166 97 4502ft 99kts
09-Oct-20 18:04 34.132607 -117.667714 97 4494ft 100kts
09-Oct-20 18:04 34.130922 -117.639731 96 4486ft 100kts
09-Oct-20 18:05 34.128115 -117.606168 93 4478ft 100kts
09-Oct-20 18:06 34.126888 -117.572447 93 4471ft 100kts
09-Oct-20 18:07 34.124993 -117.538781 95 4462ft 100kts
09-Oct-20 18:08 34.122177 -117.505377 96 4453ft 99kts
09-Oct-20 18:09 34.121900 -117.471902 88 4441ft 100kts
09-Oct-20 18:10 34.118896 -117.438850 102 4313ft 99kts
09-Oct-20 18:11 34.115025 -117.406101 103 4080ft 98kts
09-Oct-20 18:12 34.111417 -117.374013 99 3684ft 95kts
09-Oct-20 18:13 34.106961 -117.343362 105 2939ft 90kts
09-Oct-20 18:14 34.103783 -117.314670 94 2321ft 85kts
09-Oct-20 18:15 34.108117 -117.286112 76 2240ft 87kts
09-Oct-20 18:16 34.113551 -117.257515 80 2245ft 86kts
09-Oct-20 18:17 34.118305 -117.229844 75 2276ft 81kts
09-Oct-20 18:18 34.117916 -117.208189 169 1942ft 65kts
09-Oct-20 18:19 34.103278 -117.208230 241 1433ft 56kts
09-Oct-20 18:20 34.098577 -117.223701 251 1147ft 33kts
09-Oct-20 18:21 34.096564 -117.225735 160 1139ft 0kts
09-Oct-20 18:22 34.095991 -117.225497 169 1138ft 10kts
09-Oct-20 18:23 34.095566 -117.225260 336 1138ft 0kts
09-Oct-20 18:24 34.095566 -117.225260 336 1138ft 0kts
09-Oct-20 18:25 34.095566 -117.225260 336 1138ft 0kts
09-Oct-20 18:26 34.095566 -117.225260 336 1138ft 0kts
09-Oct-20 18:27 34.095566 -117.225260 336 1138ft 0kts
09-Oct-20 18:28 34.095566 -117.225260 336 1138ft 0kts
09-Oct-20 18:29 34.095566 -117.225260 336 1138ft 0kts
09-Oct-20 18:30 34.095626 -117.225293 333 1138ft 2kts
09-Oct-20 18:31 34.095626 -117.225293 333 1138ft 2kts
09-Oct-20 18:33 34.096781 -117.225826 340 1139ft 0kts
09-Oct-20 18:34 34.096781 -117.225826 340 1139ft 0kts
09-Oct-20 18:35 34.097401 -117.226094 340 1139ft 7kts

Navigation Log

Ident Type
Flight plan parsing failed, navigation log unavailable